createdAt,value
2017-09-09T00:00:44.366Z,98345.98
2017-09-09T00:03:45.650Z,98341.07
2017-09-09T00:06:46.959Z,98326.43
2017-09-09T00:09:48.259Z,98326.32
2017-09-09T00:12:49.806Z,98323.30
2017-09-09T00:15:51.064Z,98317.20
2017-09-09T00:18:52.338Z,98315.97
2017-09-09T00:21:53.614Z,98319.03
2017-09-09T00:24:55.022Z,98306.15
2017-09-09T00:27:56.274Z,98308.10
2017-09-09T00:30:57.577Z,98297.55
2017-09-09T00:33:59.047Z,98299.05
2017-09-09T00:37:01.036Z,98295.00
2017-09-09T00:40:02.467Z,98288.31
2017-09-09T00:43:03.755Z,98292.88
2017-09-09T00:46:05.146Z,98294.19
2017-09-09T00:49:07.240Z,98289.25
2017-09-09T00:52:08.595Z,98284.98
2017-09-09T00:55:09.879Z,98289.45
2017-09-09T00:58:11.191Z,98281.40
2017-09-09T01:01:12.513Z,98286.90
2017-09-09T01:04:14.571Z,98285.30
2017-09-09T01:07:15.852Z,98281.03
2017-09-09T01:10:17.179Z,98276.75
2017-09-09T01:13:19.467Z,98272.45
2017-09-09T01:16:20.743Z,98270.80
2017-09-09T01:19:22.476Z,98258.38
2017-09-09T01:22:23.790Z,98257.72
2017-09-09T01:25:25.114Z,98252.83
2017-09-09T01:28:26.391Z,98257.53
2017-09-09T01:31:27.675Z,98252.83
2017-09-09T01:34:28.942Z,98258.02
2017-09-09T01:37:30.201Z,98256.37
2017-09-09T01:40:31.516Z,98243.38
2017-09-09T01:43:33.499Z,98236.15
2017-09-09T01:46:34.948Z,98236.89
2017-09-09T01:49:36.242Z,98223.73
2017-09-09T01:52:37.558Z,98213.63
2017-09-09T01:55:38.807Z,98217.25
2017-09-09T01:58:40.094Z,98213.86
2017-09-09T02:01:41.339Z,98211.66
2017-09-09T02:04:42.675Z,98210.31
2017-09-09T02:07:43.975Z,98205.07
2017-09-09T02:10:45.981Z,98203.16
2017-09-09T02:13:47.257Z,98200.62
2017-09-09T02:16:48.566Z,98183.88
2017-09-09T02:19:49.834Z,98183.71
2017-09-09T02:22:51.137Z,98175.02
2017-09-09T02:25:52.397Z,98176.38
2017-09-09T02:28:53.686Z,98177.66
2017-09-09T02:31:54.962Z,98168.02
2017-09-09T02:34:56.991Z,98171.49
2017-09-09T02:37:58.261Z,98172.83
2017-09-09T02:40:59.551Z,98169.24
2017-09-09T02:44:00.799Z,98162.64
2017-09-09T02:47:02.127Z,98158.53
2017-09-09T02:50:04.321Z,98161.33
2017-09-09T02:53:05.606Z,98157.69
2017-09-09T02:56:06.967Z,98153.69
2017-09-09T02:59:08.261Z,98145.14
2017-09-09T03:02:09.668Z,98136.13
2017-09-09T03:05:10.939Z,98144.59
2017-09-09T03:08:13.214Z,98144.13
2017-09-09T03:11:15.222Z,98134.59
2017-09-09T03:14:16.607Z,98138.09
2017-09-09T03:17:17.869Z,98118.70
2017-09-09T03:20:19.906Z,98123.98
2017-09-09T03:23:21.895Z,98120.64
2017-09-09T03:26:23.943Z,98124.78
2017-09-09T03:29:25.216Z,98109.34
2017-09-09T03:32:27.246Z,98115.91
2017-09-09T03:35:28.499Z,98114.57
2017-09-09T03:38:29.803Z,98105.34
2017-09-09T03:41:31.794Z,98102.77
2017-09-09T03:44:33.108Z,98098.55
2017-09-09T03:47:35.293Z,98094.19
2017-09-09T03:50:36.559Z,98097.21
2017-09-09T03:53:37.947Z,98092.61
2017-09-09T03:56:39.245Z,98083.10
2017-09-09T03:59:40.547Z,98083.67
2017-09-09T04:02:41.798Z,98082.38
2017-09-09T04:05:43.094Z,98068.93
2017-09-09T04:08:44.346Z,98069.09
2017-09-09T04:11:45.626Z,98070.92
2017-09-09T04:14:47.109Z,98079.23
2017-09-09T04:17:49.114Z,98079.36
2017-09-09T04:20:50.391Z,98070.01
2017-09-09T04:23:51.702Z,98073.53
2017-09-09T04:26:53.001Z,98060.18
2017-09-09T04:29:54.298Z,98054.77
2017-09-09T04:32:55.591Z,98053.67
2017-09-09T04:35:56.915Z,98061.03
2017-09-09T04:38:58.399Z,98055.86
2017-09-09T04:41:59.795Z,98057.25
2017-09-09T04:45:01.843Z,98057.51
2017-09-09T04:48:03.254Z,98044.05
2017-09-09T04:51:04.535Z,98058.53
2017-09-09T04:54:06.590Z,98052.72
2017-09-09T04:57:07.840Z,98061.36
2017-09-09T05:00:09.130Z,98064.79
2017-09-09T05:03:10.391Z,98059.45
2017-09-09T05:06:11.675Z,98052.77
2017-09-09T05:09:12.991Z,98052.48
2017-09-09T05:12:14.270Z,98053.19
2017-09-09T05:15:15.551Z,98044.33
2017-09-09T05:18:17.601Z,98048.59
2017-09-09T05:21:18.876Z,98052.91
2017-09-09T05:24:20.930Z,98051.32
2017-09-09T05:27:23.067Z,98054.73
2017-09-09T05:30:24.370Z,98054.80
2017-09-09T05:33:25.679Z,98059.93
2017-09-09T05:36:26.985Z,98066.18
2017-09-09T05:39:28.438Z,98065.86
2017-09-09T05:42:29.703Z,98062.48
2017-09-09T05:45:31.125Z,98072.39
2017-09-09T05:48:32.387Z,98068.81
2017-09-09T05:51:33.687Z,98072.54
2017-09-09T05:54:34.970Z,98081.41
2017-09-09T05:57:36.370Z,98073.51
2017-09-09T06:00:37.673Z,98077.99
2017-09-09T06:03:38.952Z,98071.61
2017-09-09T06:06:40.239Z,98068.92
2017-09-09T06:09:42.272Z,98066.17
2017-09-09T06:12:43.530Z,98069.96
2017-09-09T06:15:44.807Z,98076.48
2017-09-09T06:18:46.810Z,98072.52
2017-09-09T06:21:48.120Z,98065.38
2017-09-09T06:24:50.134Z,98070.39
2017-09-09T06:27:51.440Z,98075.98
2017-09-09T06:30:53.446Z,98070.32
2017-09-09T06:33:54.730Z,98069.58
2017-09-09T06:36:56.006Z,98077.64
2017-09-09T06:39:58.032Z,98090.72
2017-09-09T06:42:59.347Z,98088.94
2017-09-09T06:46:00.621Z,98087.07
2017-09-09T06:49:01.925Z,98076.15
2017-09-09T06:52:03.203Z,98069.85
2017-09-09T06:55:04.515Z,98083.61
2017-09-09T06:58:05.795Z,98076.59
2017-09-09T07:01:07.095Z,98080.28
2017-09-09T07:04:09.130Z,98076.73
2017-09-09T07:07:10.449Z,98079.06
2017-09-09T07:10:11.858Z,98076.34
2017-09-09T07:13:13.842Z,98081.78
2017-09-09T07:16:15.261Z,98085.25
2017-09-09T07:19:17.251Z,98086.95
2017-09-09T07:22:18.566Z,98085.25
2017-09-09T07:25:19.837Z,98091.58
2017-09-09T07:28:21.881Z,98087.32
2017-09-09T07:31:23.141Z,98091.62
2017-09-09T07:34:25.142Z,98084.70
2017-09-09T07:37:26.397Z,98090.75
2017-09-09T07:40:27.682Z,98099.36
2017-09-09T07:43:29.002Z,98098.66
2017-09-09T07:46:30.278Z,98101.84
2017-09-09T07:49:31.585Z,98102.71
2017-09-09T07:52:32.877Z,98097.73
2017-09-09T07:55:34.162Z,98104.39
2017-09-09T07:58:35.407Z,98112.11
2017-09-09T08:01:37.430Z,98116.62
2017-09-09T08:04:38.697Z,98120.01
2017-09-09T08:07:39.958Z,98114.69
2017-09-09T08:10:41.186Z,98110.59
2017-09-09T08:13:42.502Z,98120.55
2017-09-09T08:16:43.740Z,98120.61
2017-09-09T08:19:45.018Z,98136.97
2017-09-09T08:22:46.276Z,98138.75
2017-09-09T08:25:47.569Z,98138.80
2017-09-09T08:28:48.804Z,98138.51
2017-09-09T08:31:50.821Z,98148.72
2017-09-09T08:34:52.076Z,98149.66
2017-09-09T08:37:53.370Z,98154.77
2017-09-09T08:40:55.365Z,98159.98
2017-09-09T08:43:56.630Z,98164.63
2017-09-09T08:46:58.049Z,98162.67
2017-09-09T08:49:59.333Z,98165.93
2017-09-09T08:53:00.625Z,98178.42
2017-09-09T08:56:01.866Z,98175.53
2017-09-09T08:59:03.881Z,98177.28
2017-09-09T09:02:05.130Z,98176.23
2017-09-09T09:05:06.462Z,98175.75
2017-09-09T09:08:07.738Z,98187.89
2017-09-09T09:11:09.014Z,98189.23
2017-09-09T09:14:10.602Z,98188.64
2017-09-09T09:17:11.869Z,98188.81
2017-09-09T09:20:13.154Z,98195.88
2017-09-09T09:23:14.385Z,98206.32
2017-09-09T09:26:15.694Z,98209.30
2017-09-09T09:29:17.697Z,98211.55
2017-09-09T09:32:19.114Z,98200.19
2017-09-09T09:35:20.378Z,98223.02
2017-09-09T09:38:21.642Z,98220.36
2017-09-09T09:41:22.902Z,98224.63
2017-09-09T09:44:24.209Z,98231.33
2017-09-09T09:47:25.439Z,98246.63
2017-09-09T09:50:27.526Z,98235.26
2017-09-09T09:53:28.778Z,98231.69
2017-09-09T09:56:30.074Z,98245.88
2017-09-09T09:59:31.370Z,98243.42
2017-09-09T10:02:32.778Z,98229.58
2017-09-09T10:05:34.354Z,98246.70
2017-09-09T10:08:36.389Z,98242.09
2017-09-09T10:11:37.649Z,98247.78
2017-09-09T10:14:38.934Z,98257.36
2017-09-09T10:17:40.938Z,98241.91
2017-09-09T10:20:42.265Z,98253.91
2017-09-09T10:23:43.575Z,98258.06
2017-09-09T10:26:45.587Z,98267.53
2017-09-09T10:29:46.974Z,98267.48
2017-09-09T10:32:48.226Z,98274.00
2017-09-09T10:35:49.526Z,98265.06
2017-09-09T10:38:50.794Z,98270.65
2017-09-09T10:41:52.071Z,98269.00
2017-09-09T10:44:53.290Z,98269.29
2017-09-09T10:47:54.586Z,98264.45
2017-09-09T10:50:56.630Z,98271.40
2017-09-09T10:53:57.885Z,98287.82
2017-09-09T10:56:59.149Z,98292.31
2017-09-09T11:00:01.149Z,98285.37
2017-09-09T11:03:02.449Z,98289.10
2017-09-09T11:06:03.703Z,98283.63
2017-09-09T11:09:05.774Z,98295.61
2017-09-09T11:12:07.036Z,98292.70
2017-09-09T11:15:09.065Z,98302.23
2017-09-09T11:18:10.357Z,98298.50
2017-09-09T11:21:12.350Z,98290.30
2017-09-09T11:24:13.923Z,98284.95
2017-09-09T11:27:15.174Z,98292.47
2017-09-09T11:30:16.471Z,98291.27
2017-09-09T11:33:18.465Z,98287.94
2017-09-09T11:36:19.737Z,98295.61
2017-09-09T11:39:20.998Z,98298.85
2017-09-09T11:42:22.270Z,98305.78
2017-09-09T11:45:24.254Z,98308.09
2017-09-09T11:48:25.553Z,98300.73
2017-09-09T11:51:26.810Z,98302.05
2017-09-09T11:54:28.214Z,98316.97
2017-09-09T11:57:29.462Z,98314.66
2017-09-09T12:00:30.760Z,98315.10
2017-09-09T12:03:39.104Z,98313.50
2017-09-09T12:06:40.367Z,98331.67
2017-09-09T12:09:41.601Z,98337.08
2017-09-09T12:12:43.642Z,98326.19
2017-09-09T12:15:44.924Z,98327.44
2017-09-09T12:18:46.917Z,98337.70
2017-09-09T12:21:48.202Z,98327.25
2017-09-09T12:24:49.455Z,98331.60
2017-09-09T12:27:50.739Z,98326.30
2017-09-09T12:30:52.013Z,98329.37
2017-09-09T12:33:53.274Z,98327.08
2017-09-09T12:36:54.511Z,98331.97
2017-09-09T12:39:55.781Z,98327.97
2017-09-09T12:42:57.189Z,98330.96
2017-09-09T12:45:58.434Z,98332.61
2017-09-09T12:49:00.451Z,98329.12
2017-09-09T12:52:01.723Z,98335.77
2017-09-09T12:55:03.023Z,98344.61
2017-09-09T12:58:04.278Z,98340.64
2017-09-09T13:01:05.566Z,98353.09
2017-09-09T13:04:06.822Z,98356.42
2017-09-09T13:07:08.839Z,98355.75
2017-09-09T13:10:10.082Z,98354.31
2017-09-09T13:13:11.360Z,98361.56
2017-09-09T13:16:12.603Z,98361.06
2017-09-09T13:19:13.860Z,98360.91
2017-09-09T13:22:15.117Z,98354.03
2017-09-09T13:25:16.398Z,98360.67
2017-09-09T13:28:17.726Z,98365.88
2017-09-09T13:31:19.741Z,98369.77
2017-09-09T13:34:20.970Z,98362.87
2017-09-09T13:37:22.230Z,98362.34
2017-09-09T13:40:23.514Z,98359.20
2017-09-09T13:43:24.778Z,98364.87
2017-09-09T13:46:26.035Z,98360.86
2017-09-09T13:49:28.006Z,98367.82
2017-09-09T13:52:30.046Z,98375.72
2017-09-09T13:55:31.291Z,98387.99
2017-09-09T13:58:32.577Z,98392.24
2017-09-09T14:01:34.589Z,98397.80
2017-09-09T14:04:35.887Z,98393.30
2017-09-09T14:07:37.885Z,98391.07
2017-09-09T14:10:39.143Z,98383.72
2017-09-09T14:13:40.421Z,98383.02
2017-09-09T14:16:41.702Z,98386.45
2017-09-09T14:19:43.694Z,98381.34
2017-09-09T14:22:45.006Z,98383.92
2017-09-09T14:25:47.129Z,98386.88
2017-09-09T14:28:48.374Z,98414.05
2017-09-09T14:31:50.109Z,98417.19
2017-09-09T14:34:51.418Z,98426.55
2017-09-09T14:37:53.511Z,98434.55
2017-09-09T14:40:55.513Z,98440.39
2017-09-09T14:43:56.805Z,98427.45
2017-09-09T14:46:58.787Z,98425.55
2017-09-09T14:50:00.818Z,98420.78
2017-09-09T14:53:02.246Z,98425.19
2017-09-09T14:56:03.485Z,98429.80
2017-09-09T14:59:05.026Z,98435.34
2017-09-09T15:02:06.278Z,98437.44
2017-09-09T15:05:07.562Z,98428.97
2017-09-09T15:08:08.817Z,98437.83
2017-09-09T15:11:10.861Z,98430.91
2017-09-09T15:14:12.113Z,98427.45
2017-09-09T15:17:13.391Z,98440.80
2017-09-09T15:20:14.885Z,98446.22
2017-09-09T15:23:16.154Z,98444.89
2017-09-09T15:26:17.425Z,98454.89
2017-09-09T15:29:18.701Z,98453.00
2017-09-09T15:32:20.716Z,98450.38
2017-09-09T15:35:21.966Z,98449.73
2017-09-09T15:38:23.246Z,98450.74
2017-09-09T15:41:24.515Z,98453.66
2017-09-09T15:44:26.550Z,98460.75
2017-09-09T15:47:27.835Z,98462.09
2017-09-09T15:50:29.862Z,98463.38
2017-09-09T15:53:31.147Z,98470.32
2017-09-09T15:56:33.151Z,98467.63
2017-09-09T15:59:34.462Z,98474.94
2017-09-09T16:02:36.474Z,98474.19
2017-09-09T16:05:37.847Z,98461.95
2017-09-09T16:08:39.094Z,98471.31
2017-09-09T16:11:40.546Z,98471.98
2017-09-09T16:14:41.790Z,98477.44
2017-09-09T16:17:43.043Z,98474.50
2017-09-09T16:20:44.310Z,98479.75
2017-09-09T16:23:46.293Z,98481.74
2017-09-09T16:26:48.279Z,98479.13
2017-09-09T16:29:49.549Z,98487.27
2017-09-09T16:32:50.967Z,98478.20
2017-09-09T16:35:52.206Z,98484.31
2017-09-09T16:38:53.501Z,98480.45
2017-09-09T16:41:54.794Z,98498.18
2017-09-09T16:44:57.606Z,98498.30
2017-09-09T16:47:58.854Z,98505.25
2017-09-09T16:51:00.158Z,98503.97
2017-09-09T16:54:01.433Z,98502.57
2017-09-09T16:57:03.494Z,98504.02
2017-09-09T17:00:05.495Z,98506.52
2017-09-09T17:03:06.790Z,98516.33
2017-09-09T17:06:08.835Z,98516.55
2017-09-09T17:09:11.747Z,98522.90
2017-09-09T17:12:13.783Z,98529.41
2017-09-09T17:15:15.094Z,98530.44
2017-09-09T17:18:16.560Z,98528.76
2017-09-09T17:21:17.880Z,98527.27
2017-09-09T17:24:19.940Z,98523.97
2017-09-09T17:27:21.218Z,98518.78
2017-09-09T17:30:22.550Z,98524.16
2017-09-09T17:33:24.565Z,98518.19
2017-09-09T17:36:25.866Z,98528.35
2017-09-09T17:39:27.122Z,98528.22
2017-09-09T17:42:28.442Z,98530.81
2017-09-09T17:45:30.491Z,98533.39
2017-09-09T17:48:31.836Z,98531.56
2017-09-09T17:51:33.294Z,98527.58
2017-09-09T17:54:34.577Z,98536.86
2017-09-09T17:57:36.648Z,98534.22
2017-09-09T18:00:37.917Z,98536.11
2017-09-09T18:03:39.261Z,98538.98
2017-09-09T18:06:40.547Z,98536.02
2017-09-09T18:09:41.843Z,98539.44
2017-09-09T18:12:43.126Z,98550.98
2017-09-09T18:15:44.426Z,98550.37
2017-09-09T18:18:46.443Z,98550.88
2017-09-09T18:21:47.770Z,98558.58
2017-09-09T18:24:49.144Z,98558.95
2017-09-09T18:27:50.517Z,98575.19
2017-09-09T18:30:52.134Z,98570.28
2017-09-09T18:33:53.427Z,98573.54
2017-09-09T18:36:54.719Z,98576.89
2017-09-09T18:39:56.031Z,98578.36
2017-09-09T18:42:57.338Z,98583.20
2017-09-09T18:45:58.608Z,98585.39
2017-09-09T18:48:59.918Z,98592.15
2017-09-09T18:52:01.225Z,98590.87
2017-09-09T18:55:03.291Z,98592.94
2017-09-09T18:58:05.344Z,98607.78
2017-09-09T19:01:06.680Z,98607.20
2017-09-09T19:04:08.098Z,98621.28
2017-09-09T19:07:09.419Z,98623.53
2017-09-09T19:10:11.564Z,98627.34
2017-09-09T19:13:12.862Z,98621.33
2017-09-09T19:16:14.508Z,98623.63
2017-09-09T19:19:15.860Z,98627.39
2017-09-09T19:22:17.135Z,98632.02
2017-09-09T19:25:18.479Z,98630.86
2017-09-09T19:28:19.910Z,98633.87
2017-09-09T19:31:21.934Z,98638.60
2017-09-09T19:34:23.274Z,98637.94
2017-09-09T19:37:24.563Z,98648.17
2017-09-09T19:40:26.646Z,98639.78
2017-09-09T19:43:27.919Z,98647.23
2017-09-09T19:46:29.281Z,98655.77
2017-09-09T19:49:30.710Z,98661.34
2017-09-09T19:52:32.064Z,98659.17
2017-09-09T19:55:33.393Z,98653.33
2017-09-09T19:58:34.764Z,98660.21
2017-09-09T20:01:36.249Z,98654.27
2017-09-09T20:04:38.259Z,98656.98
2017-09-09T20:07:40.329Z,98656.78
2017-09-09T20:10:42.393Z,98671.53
2017-09-09T20:13:43.702Z,98680.98
2017-09-09T20:16:45.702Z,98677.23
2017-09-09T20:19:47.773Z,98676.17
2017-09-09T20:22:49.790Z,98684.13
2017-09-09T20:25:51.217Z,98685.42
2017-09-09T20:28:52.523Z,98689.11
2017-09-09T20:31:54.559Z,98693.68
2017-09-09T20:34:55.894Z,98688.67
2017-09-09T20:37:57.185Z,98689.33
2017-09-09T20:40:58.608Z,98695.78
2017-09-09T20:43:59.903Z,98699.55
2017-09-09T20:47:01.969Z,98705.61
2017-09-09T20:50:03.270Z,98708.89
2017-09-09T20:53:04.785Z,98711.01
2017-09-09T20:56:06.177Z,98711.94
2017-09-09T20:59:07.490Z,98709.49
2017-09-09T21:02:08.937Z,98707.66
2017-09-09T21:05:10.233Z,98716.02
2017-09-09T21:08:11.533Z,98718.88
2017-09-09T21:11:13.567Z,98719.98
2017-09-09T21:14:14.870Z,98718.15
2017-09-09T21:17:16.127Z,98720.89
2017-09-09T21:20:17.434Z,98730.19
2017-09-09T21:23:19.436Z,98731.00
2017-09-09T21:26:20.744Z,98737.02
2017-09-09T21:29:22.916Z,98741.77
2017-09-09T21:32:24.959Z,98742.06
2017-09-09T21:35:27.018Z,98742.63
2017-09-09T21:38:28.335Z,98747.31
2017-09-09T21:41:29.728Z,98747.48
2017-09-09T21:44:31.051Z,98746.38
2017-09-09T21:47:33.109Z,98753.17
2017-09-09T21:50:35.132Z,98748.60
2017-09-09T21:53:36.483Z,98749.47
2017-09-09T21:56:38.008Z,98745.25
2017-09-09T21:59:39.351Z,98758.97
2017-09-09T22:02:41.027Z,98760.14
2017-09-09T22:05:42.341Z,98771.48
2017-09-09T22:08:44.454Z,98761.29
2017-09-09T22:11:46.644Z,98760.17
2017-09-09T22:14:48.008Z,98771.75
2017-09-09T22:17:49.305Z,98758.92
2017-09-09T22:20:50.622Z,98764.14
2017-09-09T22:23:52.735Z,98761.77
2017-09-09T22:26:54.101Z,98758.54
2017-09-09T22:29:55.449Z,98759.27
2017-09-09T22:32:57.615Z,98759.92
2017-09-09T22:35:59.012Z,98763.10
2017-09-09T22:39:01.114Z,98766.37
2017-09-09T22:42:02.479Z,98764.27
2017-09-09T22:45:03.866Z,98770.51
2017-09-09T22:48:05.187Z,98776.61
2017-09-09T22:51:06.544Z,98775.62
2017-09-09T22:54:07.943Z,98775.05
2017-09-09T22:57:10.023Z,98772.26
2017-09-09T23:00:11.393Z,98776.56
2017-09-09T23:03:12.739Z,98767.44
2017-09-09T23:06:14.094Z,98772.52
2017-09-09T23:09:15.458Z,98775.22
2017-09-09T23:12:16.759Z,98776.09
2017-09-09T23:15:18.930Z,98772.61
2017-09-09T23:18:21.007Z,98767.91
2017-09-09T23:21:22.366Z,98765.59
2017-09-09T23:24:23.721Z,98761.90
2017-09-09T23:27:25.075Z,98762.54
2017-09-09T23:30:26.408Z,98759.96
2017-09-09T23:33:27.729Z,98764.73
2017-09-09T23:36:29.076Z,98767.61
2017-09-09T23:39:30.417Z,98766.11
2017-09-09T23:42:31.749Z,98762.80
2017-09-09T23:45:33.125Z,98769.30
2017-09-09T23:48:34.639Z,98768.52
2017-09-09T23:51:35.980Z,98766.80
2017-09-09T23:54:37.362Z,98771.44
2017-09-09T23:57:38.678Z,98780.65
